Time;durP1;ratioP1;P1;durP2;ratioP2;P2;SDS_P1;SDS_P2;PMS_P1;PMS_P2;Temp;Humidity;BMP_temperature;BMP_pressure;BME280_temperature;BME280_humidity;BME280_pressure;Samples;Min_cycle;Max_cycle;Signal;HPM_P1;HPM_P2
2022/04/14 00:01:33;;;;;;;15.43;6.57;;;12.80;54.30;;;;;;5072996;28;20044;-74
2022/04/14 00:03:59;;;;;;;12.73;6.20;;;12.80;54.30;;;;;;5072867;28;20031;-73
2022/04/14 00:06:24;;;;;;;10.00;6.28;;;12.70;54.80;;;;;;5072501;28;20067;-73
2022/04/14 00:08:54;;;;;;;9.77;5.03;;;12.70;54.90;;;;;;5073624;28;20028;-73
2022/04/14 00:11:20;;;;;;;12.57;6.22;;;12.70;55.10;;;;;;5072988;28;20029;-73
2022/04/14 00:13:46;;;;;;;9.85;6.10;;;12.60;55.30;;;;;;5073612;28;20036;-73
2022/04/14 00:16:11;;;;;;;11.35;6.05;;;12.60;55.60;;;;;;5072797;28;20031;-73
2022/04/14 00:18:37;;;;;;;12.75;6.28;;;12.50;55.80;;;;;;5073407;28;20020;-73
2022/04/14 00:21:03;;;;;;;11.35;5.80;;;12.50;56.10;;;;;;5073019;28;20155;-73
2022/04/14 00:23:28;;;;;;;9.90;6.05;;;12.50;56.00;;;;;;5072914;28;20107;-73
2022/04/14 00:25:54;;;;;;;13.15;6.30;;;12.50;56.40;;;;;;5073126;28;20453;-73
2022/04/14 00:28:20;;;;;;;8.80;5.82;;;12.40;56.60;;;;;;5072942;28;20028;-73
2022/04/14 00:30:45;;;;;;;10.30;6.03;;;12.40;56.80;;;;;;5073637;28;20024;-73
2022/04/14 00:33:11;;;;;;;12.00;6.93;;;12.40;57.00;;;;;;5072574;28;20020;-73
2022/04/14 00:35:36;;;;;;;12.20;5.75;;;12.30;57.10;;;;;;5072900;28;20024;-73
2022/04/14 00:38:02;;;;;;;9.82;5.90;;;12.30;57.30;;;;;;5073177;28;20025;-73
2022/04/14 00:40:28;;;;;;;14.77;6.03;;;12.30;57.50;;;;;;5054226;28;20062;-71
2022/04/14 00:42:53;;;;;;;9.95;6.68;;;12.20;57.80;;;;;;5073070;28;20484;-74
2022/04/14 00:45:19;;;;;;;11.10;6.00;;;12.20;57.90;;;;;;5072369;28;20028;-73
2022/04/14 00:47:45;;;;;;;10.27;6.28;;;12.20;57.90;;;;;;5073296;28;20056;-74
2022/04/14 00:50:13;;;;;;;8.13;5.43;;;12.10;58.10;;;;;;5072184;28;20037;-73
2022/04/14 00:52:44;;;;;;;10.65;5.75;;;12.10;58.10;;;;;;5072718;28;20028;-73
2022/04/14 00:55:09;;;;;;;11.30;5.72;;;12.10;58.10;;;;;;5072168;28;20036;-74
2022/04/14 00:57:35;;;;;;;11.25;6.03;;;12.10;58.40;;;;;;5072841;28;20028;-74
2022/04/14 01:00:01;;;;;;;10.30;5.47;;;12.10;58.40;;;;;;5072131;28;20049;-73
2022/04/14 01:02:27;;;;;;;11.60;5.95;;;12.10;58.50;;;;;;5071789;28;20020;-74
2022/04/14 01:04:52;;;;;;;7.10;4.70;;;12.00;58.40;;;;;;5053910;28;20036;-74
2022/04/14 01:07:18;;;;;;;9.55;5.97;;;12.00;58.60;;;;;;5080243;28;20047;-73
2022/04/14 01:09:46;;;;;;;10.60;5.57;;;12.00;58.70;;;;;;5092676;28;20381;-73
2022/04/14 01:12:12;;;;;;;11.55;5.75;;;12.00;58.80;;;;;;5092017;28;20479;-74
2022/04/14 01:14:38;;;;;;;9.63;5.97;;;11.90;58.70;;;;;;5092679;28;20017;-73
2022/04/14 01:17:07;;;;;;;8.55;5.55;;;11.90;59.50;;;;;;5092539;28;20020;-72
2022/04/14 01:19:33;;;;;;;9.02;5.47;;;11.80;59.20;;;;;;5091939;28;20035;-74
2022/04/14 01:22:12;;;;;;;10.15;5.38;;;11.80;59.60;;;;;;5092874;28;20028;-74
2022/04/14 01:24:39;;;;;;;9.45;6.20;;;11.80;59.60;;;;;;5092888;28;20031;-74
2022/04/14 01:27:05;;;;;;;10.65;6.38;;;11.70;59.70;;;;;;5092342;28;20028;-74
2022/04/14 01:29:31;;;;;;;16.48;6.20;;;11.70;60.00;;;;;;5091691;28;20055;-73
2022/04/14 01:31:58;;;;;;;7.40;6.20;;;11.60;60.70;;;;;;5092334;28;20066;-73
2022/04/14 01:34:24;;;;;;;9.90;6.32;;;11.50;60.70;;;;;;5091326;28;20561;-73
2022/04/14 01:36:49;;;;;;;10.88;6.38;;;11.50;60.90;;;;;;5092144;28;20100;-73
2022/04/14 01:39:15;;;;;;;11.48;6.63;;;11.40;61.10;;;;;;5091590;28;20073;-73
2022/04/14 01:41:42;;;;;;;11.75;6.55;;;11.40;61.40;;;;;;5092104;28;20100;-72
2022/04/14 01:44:09;;;;;;;10.95;6.47;;;11.30;61.60;;;;;;5092206;28;20028;-74
2022/04/14 01:46:36;;;;;;;12.63;5.88;;;11.30;62.00;;;;;;5091558;28;20024;-73
2022/04/14 01:49:02;;;;;;;10.88;6.90;;;11.30;62.20;;;;;;5092033;28;20020;-73
2022/04/14 01:51:28;;;;;;;8.82;6.25;;;11.20;62.30;;;;;;5091319;28;20051;-73
2022/04/14 01:53:54;;;;;;;10.48;6.13;;;11.20;62.60;;;;;;5091952;28;20107;-73
2022/04/14 01:56:21;;;;;;;7.95;6.20;;;11.20;63.20;;;;;;5073368;28;20051;-73
2022/04/14 01:58:47;;;;;;;9.60;6.53;;;11.20;62.70;;;;;;5091876;28;20116;-74
2022/04/14 02:01:13;;;;;;;11.27;5.90;;;11.10;62.90;;;;;;5091472;28;20473;-74
2022/04/14 02:03:39;;;;;;;14.02;6.80;;;11.10;63.20;;;;;;5091678;28;20106;-74
2022/04/14 02:06:05;;;;;;;12.85;6.63;;;11.10;63.30;;;;;;5091510;28;20349;-74
2022/04/14 02:08:31;;;;;;;11.68;6.07;;;11.10;63.30;;;;;;5090077;28;20134;-74
2022/04/14 02:10:57;;;;;;;11.57;6.50;;;11.10;63.30;;;;;;5090650;28;20471;-74
2022/04/14 02:13:43;;;;;;;14.55;6.70;;;11.00;63.20;;;;;;5090254;28;20026;-74
2022/04/14 02:16:08;;;;;;;12.80;5.95;;;11.00;63.50;;;;;;5072923;28;20028;-74
2022/04/14 02:18:34;;;;;;;7.43;5.75;;;11.00;63.20;;;;;;5095061;28;20031;-74
2022/04/14 02:21:00;;;;;;;9.80;5.57;;;11.00;63.40;;;;;;5095695;28;20028;-73
2022/04/14 02:23:26;;;;;;;8.18;5.90;;;11.00;63.10;;;;;;5077108;28;20058;-74
2022/04/14 02:25:52;;;;;;;9.95;5.45;;;11.00;63.60;;;;;;5095849;28;20134;-74
2022/04/14 02:28:19;;;;;;;7.05;5.13;;;11.00;63.20;;;;;;5095233;28;20480;-74
2022/04/14 02:30:45;;;;;;;9.07;5.15;;;11.00;63.00;;;;;;5095802;28;20452;-74
2022/04/14 02:33:11;;;;;;;9.77;5.45;;;11.00;63.20;;;;;;5095680;28;20051;-74
2022/04/14 02:35:36;;;;;;;12.82;5.82;;;11.00;63.00;;;;;;5095018;28;20031;-74
2022/04/14 02:38:02;;;;;;;10.90;5.20;;;11.00;62.90;;;;;;5095369;28;20059;-74
2022/04/14 02:40:28;;;;;;;10.05;5.75;;;11.00;63.00;;;;;;5094901;28;20426;-74
2022/04/14 02:42:54;;;;;;;7.47;4.75;;;11.00;63.10;;;;;;5095441;28;20074;-74
2022/04/14 02:45:21;;;;;;;8.40;4.88;;;11.00;62.90;;;;;;5094957;28;20028;-74
2022/04/14 02:47:47;;;;;;;12.23;4.90;;;11.00;63.00;;;;;;5095565;28;20063;-74
2022/04/14 02:50:12;;;;;;;8.90;5.13;;;11.00;62.80;;;;;;5095320;28;20479;-74
2022/04/14 02:52:38;;;;;;;10.05;5.55;;;11.00;62.90;;;;;;5094621;28;20028;-74
2022/04/14 02:55:04;;;;;;;8.93;5.10;;;11.00;63.00;;;;;;5095262;28;20039;-74
2022/04/14 02:57:30;;;;;;;7.85;5.25;;;10.90;62.80;;;;;;5094720;28;20032;-74
2022/04/14 02:59:57;;;;;;;9.43;5.30;;;10.90;63.10;;;;;;5094755;28;20052;-74
2022/04/14 03:02:23;;;;;;;7.35;5.53;;;10.90;63.20;;;;;;5094249;28;20183;-75
2022/04/14 03:04:48;;;;;;;6.75;5.25;;;10.90;63.00;;;;;;5094712;28;20028;-74
2022/04/14 03:07:14;;;;;;;11.15;5.25;;;10.90;63.20;;;;;;5094957;28;20027;-74
2022/04/14 03:09:40;;;;;;;9.52;5.07;;;10.90;63.30;;;;;;5094113;28;20032;-74
2022/04/14 03:12:06;;;;;;;9.40;5.72;;;10.90;63.30;;;;;;5094350;28;20460;-74
2022/04/14 03:14:32;;;;;;;7.05;5.40;;;10.90;63.20;;;;;;5094373;28;20024;-75
2022/04/14 03:16:57;;;;;;;7.57;5.50;;;10.90;63.40;;;;;;5090645;28;20019;-74
2022/04/14 03:19:23;;;;;;;6.07;4.88;;;10.90;63.30;;;;;;5074181;28;20095;-74
2022/04/14 03:21:50;;;;;;;6.57;4.95;;;10.80;63.50;;;;;;5074398;28;20035;-75
2022/04/14 03:24:16;;;;;;;7.00;4.78;;;10.80;63.40;;;;;;5074488;28;20032;-74
2022/04/14 03:26:41;;;;;;;8.18;5.13;;;10.80;63.40;;;;;;5074101;28;20154;-74
2022/04/14 03:29:07;;;;;;;10.18;5.13;;;10.80;63.60;;;;;;5073523;28;20387;-75
2022/04/14 03:31:33;;;;;;;9.50;5.50;;;10.80;63.40;;;;;;5073635;28;20060;-75
2022/04/14 03:33:59;;;;;;;7.90;5.43;;;10.80;63.40;;;;;;5074430;28;20081;-74
2022/04/14 03:36:24;;;;;;;7.65;5.13;;;10.80;63.20;;;;;;5073272;28;20024;-75
2022/04/14 03:38:50;;;;;;;13.15;5.07;;;10.80;63.40;;;;;;5074376;28;20033;-74
2022/04/14 03:41:15;;;;;;;12.57;5.85;;;10.70;63.50;;;;;;5073982;28;20024;-74
2022/04/14 03:43:41;;;;;;;7.65;5.03;;;10.70;63.70;;;;;;5073304;28;20032;-75
2022/04/14 03:46:07;;;;;;;8.75;5.53;;;10.70;63.50;;;;;;5074166;28;20032;-74
2022/04/14 03:48:32;;;;;;;9.75;5.20;;;10.70;63.50;;;;;;5073561;28;20111;-74
2022/04/14 03:50:58;;;;;;;9.45;5.50;;;10.70;63.70;;;;;;5073862;28;20033;-75
2022/04/14 03:53:24;;;;;;;7.38;5.30;;;10.70;63.90;;;;;;5073441;28;20163;-75
2022/04/14 03:55:50;;;;;;;9.93;5.55;;;10.70;64.30;;;;;;5073933;28;20024;-75
2022/04/14 03:58:16;;;;;;;9.93;5.78;;;10.70;64.40;;;;;;5074055;28;20025;-75
2022/04/14 04:00:42;;;;;;;7.40;4.88;;;10.70;64.30;;;;;;5073269;28;20048;-75
2022/04/14 04:03:12;;;;;;;7.80;5.25;;;10.70;64.30;;;;;;5074009;28;20020;-76
2022/04/14 04:05:38;;;;;;;6.95;5.28;;;10.70;64.30;;;;;;5073202;28;20016;-76
2022/04/14 04:08:05;;;;;;;11.93;5.38;;;10.70;64.10;;;;;;5081520;28;20089;-76
2022/04/14 04:10:31;;;;;;;7.28;5.35;;;10.70;63.90;;;;;;5087692;28;20032;-76
2022/04/14 04:12:57;;;;;;;8.27;5.40;;;10.70;63.70;;;;;;5093591;28;20074;-76
2022/04/14 04:15:22;;;;;;;7.05;4.45;;;10.70;63.60;;;;;;5092832;28;20074;-76
2022/04/14 04:17:51;;;;;;;7.70;4.75;;;10.60;63.50;;;;;;5093595;28;20373;-75
2022/04/14 04:20:18;;;;;;;6.05;4.78;;;10.60;63.10;;;;;;5093786;28;20058;-75
2022/04/14 04:22:44;;;;;;;10.23;5.45;;;10.70;63.00;;;;;;5092737;28;20043;-75
2022/04/14 04:25:10;;;;;;;7.32;4.70;;;10.70;62.70;;;;;;5093591;28;20028;-74
2022/04/14 04:27:36;;;;;;;10.13;5.35;;;10.70;62.70;;;;;;5082435;28;20035;-76
2022/04/14 04:30:03;;;;;;;8.93;4.60;;;10.70;62.50;;;;;;5087742;28;20017;-76
2022/04/14 04:32:29;;;;;;;7.72;4.57;;;10.70;62.00;;;;;;5092497;28;20063;-74
2022/04/14 04:34:55;;;;;;;9.93;4.95;;;10.70;62.20;;;;;;5084531;28;20040;-75
2022/04/14 04:37:20;;;;;;;7.30;5.03;;;10.70;61.70;;;;;;5072564;28;20107;-77
2022/04/14 04:39:46;;;;;;;10.27;4.93;;;10.70;61.70;;;;;;5053654;28;20220;-76
2022/04/14 04:42:11;;;;;;;9.73;5.00;;;10.80;61.40;;;;;;5054715;28;20466;-75
2022/04/14 04:44:39;;;;;;;8.75;5.45;;;10.80;61.30;;;;;;5074969;28;20082;-76
2022/04/14 04:47:04;;;;;;;7.97;4.53;;;10.80;61.30;;;;;;5072844;28;20060;-75
2022/04/14 04:49:30;;;;;;;6.97;4.45;;;10.90;60.90;;;;;;5054028;28;20125;-76
2022/04/14 04:51:56;;;;;;;6.63;4.60;;;10.90;60.90;;;;;;5072727;28;20445;-76
2022/04/14 04:54:21;;;;;;;8.25;4.80;;;10.90;60.70;;;;;;5072632;28;20052;-75
2022/04/14 04:56:47;;;;;;;8.75;4.85;;;10.90;60.70;;;;;;5071852;28;20377;-75
2022/04/14 04:59:13;;;;;;;9.52;4.80;;;10.90;60.70;;;;;;5071998;28;20028;-76
2022/04/14 05:01:38;;;;;;;8.90;4.47;;;10.90;60.70;;;;;;5075170;28;20044;-75
2022/04/14 05:04:04;;;;;;;10.05;5.00;;;11.00;60.30;;;;;;5072559;28;20046;-75
2022/04/14 05:06:30;;;;;;;11.32;4.90;;;11.00;60.00;;;;;;5072057;28;20035;-75
2022/04/14 05:08:55;;;;;;;7.35;4.38;;;11.10;60.10;;;;;;5072534;28;20032;-76
2022/04/14 05:11:21;;;;;;;10.32;4.68;;;11.20;60.00;;;;;;5054329;28;20029;-76
2022/04/14 05:13:47;;;;;;;10.48;4.97;;;11.20;59.60;;;;;;5071594;28;20027;-75
2022/04/14 05:16:12;;;;;;;11.38;4.65;;;11.30;59.30;;;;;;5077437;28;20020;-75
2022/04/14 05:18:39;;;;;;;11.88;4.70;;;11.40;58.80;;;;;;5071618;28;20032;-75
2022/04/14 05:21:23;;;;;;;9.85;5.20;;;11.50;58.70;;;;;;5072294;28;20457;-76
2022/04/14 05:23:49;;;;;;;11.18;6.03;;;11.50;58.20;;;;;;5090885;28;20457;-74
2022/04/14 05:26:14;;;;;;;12.15;5.78;;;11.50;58.10;;;;;;5092363;28;20036;-76
2022/04/14 05:28:40;;;;;;;10.73;4.78;;;11.60;57.70;;;;;;5092166;28;20020;-74
2022/04/14 05:31:06;;;;;;;15.75;5.05;;;11.70;57.60;;;;;;5074349;28;20035;-74
2022/04/14 05:33:31;;;;;;;10.10;4.32;;;11.70;57.10;;;;;;5091940;28;20476;-74
2022/04/14 05:35:57;;;;;;;6.93;3.92;;;11.80;57.10;;;;;;5092574;28;20056;-75
2022/04/14 05:38:23;;;;;;;12.45;4.60;;;11.80;57.30;;;;;;5092229;28;20024;-75
2022/04/14 05:40:48;;;;;;;11.85;4.97;;;11.90;56.30;;;;;;5091641;28;20132;-74
2022/04/14 05:43:18;;;;;;;11.27;4.78;;;12.00;55.90;;;;;;5092483;28;20034;-74
2022/04/14 05:45:47;;;;;;;8.63;4.28;;;12.00;55.50;;;;;;5091638;28;20024;-74
2022/04/14 05:48:16;;;;;;;12.15;4.28;;;12.00;55.40;;;;;;5092489;28;20146;-75
2022/04/14 05:50:43;;;;;;;11.30;4.50;;;12.10;55.70;;;;;;5091811;28;20139;-74
2022/04/14 05:53:09;;;;;;;10.52;4.22;;;12.20;54.90;;;;;;5091678;28;20020;-76
2022/04/14 05:55:35;;;;;;;8.82;4.20;;;12.30;55.00;;;;;;5091607;28;20074;-73
2022/04/14 05:58:05;;;;;;;8.13;3.92;;;12.40;54.80;;;;;;5092099;28;20083;-73
2022/04/14 06:00:34;;;;;;;8.88;3.95;;;12.50;54.40;;;;;;5091125;28;20318;-75
2022/04/14 06:03:02;;;;;;;8.15;4.80;;;12.60;53.70;;;;;;5091972;28;20106;-75
2022/04/14 06:05:29;;;;;;;12.55;4.40;;;12.80;53.40;;;;;;5091286;28;20093;-78
2022/04/14 06:07:55;;;;;;;9.30;4.13;;;13.10;53.50;;;;;;5091746;28;20483;-74
2022/04/14 06:10:21;;;;;;;9.13;4.47;;;13.30;52.30;;;;;;5092027;28;20046;-74
2022/04/14 06:12:47;;;;;;;9.35;4.25;;;13.60;51.80;;;;;;5091484;28;20099;-74
2022/04/14 06:15:13;;;;;;;6.50;4.30;;;13.80;51.60;;;;;;5091989;28;20107;-73
2022/04/14 06:17:39;;;;;;;9.38;4.45;;;14.00;51.00;;;;;;5091173;28;20028;-74
2022/04/14 06:20:05;;;;;;;6.90;4.20;;;14.20;50.70;;;;;;5092027;28;20099;-73
2022/04/14 06:22:42;;;;;;;7.45;3.97;;;14.50;50.40;;;;;;5091047;28;20111;-74
2022/04/14 06:25:13;;;;;;;7.55;4.03;;;14.70;49.50;;;;;;5073977;28;20024;-73
2022/04/14 06:27:42;;;;;;;9.52;4.00;;;14.90;49.00;;;;;;5091319;28;20024;-74
2022/04/14 06:30:10;;;;;;;8.27;4.63;;;15.10;49.00;;;;;;5092191;28;20136;-74
2022/04/14 06:32:36;;;;;;;9.73;4.20;;;15.30;48.40;;;;;;5091154;28;20092;-74
2022/04/14 06:35:06;;;;;;;6.57;4.25;;;15.50;47.70;;;;;;5091815;28;20032;-74
2022/04/14 06:37:35;;;;;;;6.70;4.30;;;15.50;47.30;;;;;;5091222;28;20028;-75
2022/04/14 06:40:02;;;;;;;13.00;4.63;;;15.80;46.80;;;;;;5091559;28;20099;-74
2022/04/14 06:42:28;;;;;;;8.57;4.40;;;15.90;46.90;;;;;;5091604;28;20024;-74
2022/04/14 06:45:03;;;;;;;10.30;4.03;;;16.10;46.20;;;;;;5091083;28;20449;-74
2022/04/14 06:47:29;;;;;;;7.63;4.30;;;16.30;45.50;;;;;;5092147;28;20051;-74
2022/04/14 06:49:55;;;;;;;12.43;4.20;;;16.30;45.40;;;;;;5091053;28;20028;-74
2022/04/14 06:52:21;;;;;;;9.20;4.13;;;16.40;45.30;;;;;;5091595;28;20024;-74
2022/04/14 06:54:48;;;;;;;13.90;4.88;;;16.70;44.30;;;;;;5090629;28;20020;-74
2022/04/14 06:57:14;;;;;;;8.82;4.28;;;17.00;44.00;;;;;;5091223;28;20081;-74
2022/04/14 06:59:40;;;;;;;9.68;4.20;;;17.70;42.70;;;;;;5090687;28;20382;-75
2022/04/14 07:02:06;;;;;;;7.00;4.00;;;18.80;41.80;;;;;;5091694;28;20031;-74
2022/04/14 07:04:32;;;;;;;8.10;4.18;;;21.10;40.00;;;;;;5093830;28;20048;-79
2022/04/14 07:06:57;;;;;;;10.13;4.30;;;22.80;34.20;;;;;;5095413;28;20071;-74
2022/04/14 07:09:24;;;;;;;9.18;3.63;;;24.20;34.10;;;;;;5094933;28;20085;-74
2022/04/14 07:11:50;;;;;;;8.15;3.58;;;25.50;30.60;;;;;;5094239;28;20059;-74
2022/04/14 07:14:17;;;;;;;10.43;3.67;;;25.90;30.20;;;;;;5095226;28;20035;-74
2022/04/14 07:16:43;;;;;;;10.40;3.33;;;26.90;29.30;;;;;;5094635;28;20032;-75
2022/04/14 07:19:08;;;;;;;8.63;4.07;;;27.40;28.80;;;;;;5094982;28;20350;-74
2022/04/14 07:21:34;;;;;;;5.20;3.72;;;28.60;28.10;;;;;;5094257;28;20068;-74
2022/04/14 07:24:00;;;;;;;10.27;3.55;;;29.10;27.20;;;;;;5077630;28;20457;-74
2022/04/14 07:26:25;;;;;;;9.82;4.15;;;29.70;27.50;;;;;;5074558;28;20028;-74
2022/04/14 07:28:51;;;;;;;13.90;4.32;;;30.50;26.40;;;;;;5074157;28;20085;-74
2022/04/14 07:31:16;;;;;;;6.15;3.60;;;30.70;26.20;;;;;;5075019;28;20043;-74
2022/04/14 07:33:42;;;;;;;8.82;3.85;;;30.90;25.80;;;;;;5073863;28;20141;-75
2022/04/14 07:36:08;;;;;;;4.63;3.17;;;31.20;25.40;;;;;;5074573;28;20025;-74
2022/04/14 07:38:34;;;;;;;5.43;2.95;;;31.40;25.50;;;;;;5074273;28;20616;-74
2022/04/14 07:41:05;;;;;;;13.05;3.63;;;31.50;25.10;;;;;;5073952;28;20385;-74
2022/04/14 07:43:31;;;;;;;10.85;3.28;;;31.30;24.70;;;;;;5074373;28;20392;-74
2022/04/14 07:45:57;;;;;;;11.80;3.00;;;31.50;24.00;;;;;;5055740;28;20074;-74
2022/04/14 07:48:22;;;;;;;7.82;3.63;;;31.00;24.40;;;;;;5074167;28;20396;-74
2022/04/14 07:50:49;;;;;;;8.13;3.13;;;30.80;24.50;;;;;;5073393;28;20530;-74
2022/04/14 07:53:15;;;;;;;7.35;3.47;;;30.10;24.90;;;;;;5074000;28;20035;-75
2022/04/14 07:55:41;;;;;;;8.90;3.60;;;30.80;25.30;;;;;;5073222;28;20016;-73
2022/04/14 07:58:07;;;;;;;7.80;3.30;;;31.00;24.70;;;;;;5073797;28;20056;-74
2022/04/14 08:00:37;;;;;;;7.13;3.30;;;31.50;24.40;;;;;;5074122;28;20045;-74
2022/04/14 08:03:05;;;;;;;7.60;3.17;;;32.00;24.90;;;;;;5073999;28;20028;-74
2022/04/14 08:05:33;;;;;;;9.80;3.45;;;32.20;23.80;;;;;;5073611;28;20060;-74
2022/04/14 08:08:00;;;;;;;9.48;3.05;;;31.70;24.40;;;;;;5073217;28;20060;-74
2022/04/14 08:10:26;;;;;;;8.65;3.42;;;31.90;24.40;;;;;;5073574;28;20029;-74
2022/04/14 08:12:53;;;;;;;5.32;3.10;;;32.60;24.30;;;;;;5072797;28;20044;-75
2022/04/14 08:15:18;;;;;;;7.68;3.40;;;32.20;23.90;;;;;;5073316;28;20052;-74
2022/04/14 08:17:45;;;;;;;11.95;3.15;;;32.50;24.10;;;;;;5072220;28;20032;-74
2022/04/14 08:22:59;;;;;;;6.35;3.00;;;32.10;24.10;;;;;;5072731;28;20138;-73
2022/04/14 08:25:27;;;;;;;7.32;3.05;;;32.20;24.60;;;;;;5073300;28;20029;-75
2022/04/14 08:27:54;;;;;;;7.97;2.80;;;32.20;24.80;;;;;;5072739;28;20491;-75
2022/04/14 08:30:23;;;;;;;10.20;3.17;;;32.00;24.00;;;;;;5073289;28;20044;-74
2022/04/14 08:32:50;;;;;;;7.55;3.35;;;32.20;24.70;;;;;;5072773;28;20103;-74
2022/04/14 08:35:19;;;;;;;11.43;3.40;;;31.50;24.60;;;;;;5073298;28;20202;-73
2022/04/14 08:37:45;;;;;;;9.00;3.60;;;30.00;25.00;;;;;;5072604;28;20032;-75
2022/04/14 08:40:13;;;;;;;8.13;3.80;;;29.10;25.60;;;;;;5072750;28;20035;-75
2022/04/14 08:42:40;;;;;;;13.38;4.05;;;28.10;26.20;;;;;;5054898;28;20036;-78
2022/04/14 08:45:11;;;;;;;8.90;3.38;;;27.10;26.80;;;;;;5073154;28;20511;-74
2022/04/14 08:47:39;;;;;;;;;;;25.70;27.80;;;;;;5073114;28;20428;-74
2022/04/14 08:50:07;;;;;;;7.63;3.10;;;25.10;28.70;;;;;;5072683;28;19904;-75
2022/04/14 08:52:34;;;;;;;5.25;3.03;;;24.80;29.10;;;;;;5072886;28;20025;-74
2022/04/14 08:55:05;;;;;;;6.80;3.53;;;24.70;29.10;;;;;;5072142;28;20667;-73
2022/04/14 08:57:32;;;;;;;6.97;3.25;;;24.40;29.20;;;;;;5072906;28;20033;-73
2022/04/14 09:00:00;;;;;;;8.70;3.50;;;23.80;30.10;;;;;;5072055;28;20044;-74
2022/04/14 09:02:26;;;;;;;4.80;3.33;;;23.70;30.10;;;;;;5072524;28;20040;-74
2022/04/14 09:04:52;;;;;;;7.90;3.28;;;23.50;30.70;;;;;;5072021;28;20025;-75
2022/04/14 09:07:18;;;;;;;11.23;3.55;;;23.30;30.80;;;;;;5072709;28;20036;-75
2022/04/14 09:09:45;;;;;;;6.40;2.95;;;23.10;31.10;;;;;;5071665;28;20024;-75
2022/04/14 09:12:12;;;;;;;7.43;3.40;;;23.00;31.60;;;;;;5072318;28;20032;-75
2022/04/14 09:14:38;;;;;;;10.85;3.45;;;23.00;32.00;;;;;;5087882;28;20078;-75
2022/04/14 09:17:07;;;;;;;6.65;2.85;;;23.10;32.00;;;;;;5092193;28;20046;-75
2022/04/14 09:19:35;;;;;;;9.02;3.30;;;23.00;32.20;;;;;;5092756;28;20027;-74
2022/04/14 09:22:03;;;;;;;8.70;2.95;;;22.90;31.80;;;;;;5091695;28;20035;-74
2022/04/14 09:24:44;;;;;;;9.40;3.30;;;23.00;32.40;;;;;;5092661;28;20038;-74
2022/04/14 09:27:24;;;;;;;6.57;3.20;;;22.90;31.90;;;;;;5077582;28;20024;-73
2022/04/14 09:29:50;;;;;;;7.03;2.97;;;22.80;32.40;;;;;;5071455;28;20241;-75
2022/04/14 09:32:39;;;;;;;12.32;3.10;;;22.70;33.00;;;;;;5072282;28;20028;-74
2022/04/14 09:35:08;;;;;;;10.00;2.92;;;22.80;32.90;;;;;;5071699;28;20113;-73
2022/04/14 09:37:34;;;;;;;9.02;3.13;;;22.90;32.80;;;;;;5072012;28;20020;-74
2022/04/14 09:40:05;;;;;;;7.30;3.17;;;22.90;32.70;;;;;;5071484;28;20347;-75
2022/04/14 09:42:40;;;;;;;6.30;2.80;;;22.80;32.90;;;;;;5072088;28;20512;-74
2022/04/14 09:45:19;;;;;;;10.32;3.50;;;22.70;33.00;;;;;;5070990;28;20376;-74
2022/04/14 09:47:45;;;;;;;4.97;2.88;;;22.70;32.50;;;;;;5071429;28;20028;-74
2022/04/14 09:50:51;;;;;;;7.93;2.92;;;22.60;32.60;;;;;;5071891;28;20016;-74
2022/04/14 09:53:20;;;;;;;10.57;3.10;;;22.70;33.00;;;;;;5066609;28;20040;-75
2022/04/14 09:55:52;;;;;;;8.73;3.33;;;22.60;32.70;;;;;;5071086;28;20032;-76
2022/04/14 09:58:18;;;;;;;4.82;3.10;;;22.50;32.30;;;;;;5071406;28;20029;-74
2022/04/14 10:00:46;;;;;;;9.65;3.00;;;22.50;32.90;;;;;;5053334;28;20055;-74
2022/04/14 10:03:20;;;;;;;7.03;3.10;;;22.50;32.80;;;;;;5071788;28;20027;-74
2022/04/14 10:05:48;;;;;;;8.52;2.60;;;22.50;32.00;;;;;;5071135;28;20103;-75
2022/04/14 10:08:15;;;;;;;10.73;3.13;;;22.40;32.50;;;;;;5071724;28;20426;-74
2022/04/14 10:10:48;;;;;;;6.03;2.70;;;22.30;32.00;;;;;;5071814;28;20099;-74
2022/04/14 10:13:16;;;;;;;9.43;3.17;;;22.30;32.90;;;;;;5071102;28;20052;-75
2022/04/14 10:15:44;;;;;;;8.77;2.88;;;22.40;32.50;;;;;;5070781;28;20025;-75
2022/04/14 10:18:14;;;;;;;8.05;2.83;;;22.40;32.00;;;;;;5071239;28;20032;-75
2022/04/14 10:20:42;;;;;;;6.80;2.93;;;22.40;31.90;;;;;;5071699;28;20036;-76
2022/04/14 10:23:09;;;;;;;6.65;3.00;;;22.40;32.20;;;;;;5070722;28;20821;-74
2022/04/14 10:25:37;;;;;;;6.40;3.00;;;22.30;32.20;;;;;;5071524;28;20021;-75
2022/04/14 10:28:05;;;;;;;8.07;3.13;;;22.30;32.10;;;;;;5070613;28;20405;-74
2022/04/14 10:30:31;;;;;;;12.00;2.70;;;22.30;32.20;;;;;;5071289;28;20029;-74
2022/04/14 10:32:57;;;;;;;6.53;2.90;;;22.30;32.40;;;;;;5070642;28;20029;-75
2022/04/14 10:35:27;;;;;;;5.00;3.13;;;22.30;32.20;;;;;;5071542;28;20024;-74
2022/04/14 10:37:57;;;;;;;7.05;2.75;;;22.20;32.60;;;;;;5072621;28;20039;-75
2022/04/14 10:40:23;;;;;;;5.15;3.10;;;22.30;32.60;;;;;;5075454;28;20182;-75
2022/04/14 10:42:52;;;;;;;5.50;2.72;;;22.20;32.40;;;;;;5074779;28;20520;-76
2022/04/14 10:45:22;;;;;;;4.68;2.80;;;22.10;32.30;;;;;;5075165;28;20024;-75
2022/04/14 10:47:50;;;;;;;10.55;3.33;;;22.10;32.60;;;;;;5074988;28;20369;-73
2022/04/14 10:50:27;;;;;;;4.80;3.15;;;22.20;32.80;;;;;;5075152;28;20047;-75
2022/04/14 10:53:39;;;;;;;4.63;2.75;;;22.20;32.30;;;;;;5074454;28;20111;-75
2022/04/14 10:56:04;;;;;;;6.18;2.88;;;22.20;32.70;;;;;;5074267;28;20064;-75
2022/04/14 10:58:36;;;;;;;12.57;2.63;;;22.20;32.80;;;;;;5074643;28;20060;-75
2022/04/14 11:01:02;;;;;;;9.20;2.78;;;22.20;33.10;;;;;;5074345;28;20045;-75
2022/04/14 11:03:48;;;;;;;6.72;3.08;;;22.30;33.40;;;;;;5074751;28;20438;-75
2022/04/14 11:06:51;;;;;;;8.20;3.08;;;22.30;33.00;;;;;;5074240;28;20221;-75
2022/04/14 11:09:43;;;;;;;11.82;3.17;;;22.40;32.60;;;;;;5075034;28;20079;-75
2022/04/14 11:12:14;;;;;;;5.30;2.95;;;22.40;32.90;;;;;;5074192;28;20081;-75
2022/04/14 11:15:00;;;;;;;7.18;2.80;;;22.40;32.80;;;;;;5074893;28;20032;-75
2022/04/14 11:17:38;;;;;;;7.70;2.92;;;22.30;32.50;;;;;;5082760;28;20103;-76
2022/04/14 11:20:15;;;;;;;8.98;3.05;;;22.30;33.20;;;;;;5094350;28;20028;-75
2022/04/14 11:23:03;;;;;;;6.05;3.17;;;22.40;33.30;;;;;;5076376;28;20081;-75
2022/04/14 11:25:49;;;;;;;12.10;3.03;;;22.40;32.80;;;;;;5094533;28;20024;-75
2022/04/14 11:28:32;;;;;;;9.35;3.03;;;22.50;33.00;;;;;;5093755;28;20035;-75
2022/04/14 11:30:59;;;;;;;5.60;2.55;;;22.50;33.00;;;;;;5085913;28;20032;-76
2022/04/14 11:33:28;;;;;;;7.78;3.17;;;22.50;33.00;;;;;;5074407;28;20021;-76
2022/04/14 11:36:16;;;;;;;7.63;2.90;;;22.50;33.10;;;;;;5057119;28;20123;-76
2022/04/14 11:38:55;;;;;;;7.10;3.10;;;22.50;33.40;;;;;;5074179;28;20077;-76
2022/04/14 11:41:41;;;;;;;6.00;3.28;;;22.40;33.10;;;;;;5073996;28;20123;-75
2022/04/14 11:44:14;;;;;;;5.40;2.92;;;22.40;33.30;;;;;;5073465;28;20029;-77
2022/04/14 11:46:44;;;;;;;8.48;3.00;;;22.50;33.80;;;;;;5074184;28;20029;-76
2022/04/14 11:49:12;;;;;;;6.63;2.88;;;22.40;33.60;;;;;;5073053;28;20064;-76
2022/04/14 11:51:45;;;;;;;5.15;2.80;;;22.40;34.20;;;;;;5073955;28;20032;-76
2022/04/14 11:54:11;;;;;;;7.55;3.05;;;22.40;33.80;;;;;;5055474;28;20086;-76
2022/04/14 11:56:37;;;;;;;9.75;2.90;;;22.40;33.80;;;;;;5074071;28;20381;-76
2022/04/14 11:59:08;;;;;;;11.10;3.20;;;22.30;33.80;;;;;;5073770;28;20021;-77
2022/04/14 12:01:34;;;;;;;6.38;2.70;;;22.40;34.20;;;;;;5073754;28;20481;-76
2022/04/14 12:04:00;;;;;;;7.55;3.25;;;22.40;34.10;;;;;;5073081;28;20025;-76
2022/04/14 12:06:26;;;;;;;6.03;3.03;;;22.30;34.40;;;;;;5073739;28;20021;-76
2022/04/14 12:08:55;;;;;;;6.90;2.90;;;22.40;34.10;;;;;;5073895;28;20053;-76
2022/04/14 12:11:24;;;;;;;7.25;3.13;;;22.40;33.80;;;;;;5073421;28;20454;-75
2022/04/14 12:13:49;;;;;;;8.48;2.90;;;22.30;34.20;;;;;;5073517;28;20025;-77
2022/04/14 12:16:15;;;;;;;6.68;3.22;;;22.30;34.50;;;;;;5073065;28;20515;-76
2022/04/14 12:18:49;;;;;;;6.97;2.80;;;22.30;34.10;;;;;;5073273;28;20027;-75
2022/04/14 12:21:19;;;;;;;3.85;2.58;;;22.20;34.50;;;;;;5072877;28;20200;-76
2022/04/14 12:23:50;;;;;;;7.15;2.92;;;22.20;34.60;;;;;;5073526;28;20041;-76
2022/04/14 12:26:17;;;;;;;6.63;3.42;;;22.10;34.50;;;;;;5072726;28;20380;-75
2022/04/14 12:28:45;;;;;;;9.95;3.03;;;22.10;34.70;;;;;;5073387;28;20025;-77
2022/04/14 12:31:16;;;;;;;9.70;3.17;;;22.00;34.50;;;;;;5072379;28;20029;-76
2022/04/14 12:33:54;;;;;;;9.25;3.13;;;21.90;34.70;;;;;;5073394;28;20112;-75
2022/04/14 12:36:20;;;;;;;10.82;3.00;;;21.80;35.00;;;;;;5072546;28;20036;-76
2022/04/14 12:38:47;;;;;;;10.43;3.10;;;21.80;35.00;;;;;;5073102;28;20021;-77
2022/04/14 12:41:19;;;;;;;8.23;3.20;;;21.70;35.30;;;;;;5072148;28;20028;-76
2022/04/14 12:43:47;;;;;;;6.70;2.75;;;21.70;35.50;;;;;;5073226;28;20032;-77
2022/04/14 12:46:22;;;;;;;6.13;3.08;;;21.60;35.60;;;;;;5072207;28;20024;-77
2022/04/14 12:48:59;;;;;;;9.95;3.53;;;21.60;35.90;;;;;;5072702;28;20020;-77
2022/04/14 12:51:29;;;;;;;4.43;3.00;;;21.60;35.50;;;;;;5072445;28;20033;-76